Time;durP1;ratioP1;P1;durP2;ratioP2;P2;SDS_P1;SDS_P2;PMS_P1;PMS_P2;Temp;Humidity;BMP_temperature;BMP_pressure;BME280_temperature;BME280_humidity;BME280_pressure;Samples;Min_cycle;Max_cycle;Signal;HPM_P1;HPM_P2
2022/11/05 00:17:00;;;;;;;3.85;1.52;;;;;;;10.02;80.12;99891.84;4997121;28;20058;-78
2022/11/05 00:19:28;;;;;;;4.70;1.80;;;;;;;10.04;78.35;99895.91;5001397;28;20385;-78
2022/11/05 00:27:32;;;;;;;4.03;2.20;;;;;;;10.02;79.38;99897.31;5005116;28;20056;-78
2022/11/05 00:29:59;;;;;;;2.45;1.85;;;;;;;10.06;78.86;99904.63;4994643;28;20431;-78
2022/11/05 00:32:27;;;;;;;4.53;1.98;;;;;;;10.11;77.56;99895.53;4999167;28;20045;-78
2022/11/05 00:34:55;;;;;;;2.55;1.50;;;;;;;9.99;77.05;99892.41;4992212;28;20058;-78
2022/11/05 00:37:23;;;;;;;1.55;1.00;;;;;;;9.94;75.14;99901.50;4993813;28;20402;-78
2022/11/05 00:39:51;;;;;;;1.73;1.38;;;;;;;9.96;76.87;99896.53;4997596;28;20406;-78
2022/11/05 00:45:06;;;;;;;1.42;0.88;;;;;;;10.08;75.72;99896.13;4994282;28;20062;-78
2022/11/05 00:50:22;;;;;;;3.67;0.90;;;;;;;10.12;72.13;99908.09;5006409;28;20054;-78
2022/11/05 00:52:54;;;;;;;0.60;0.60;;;;;;;10.07;72.17;99908.19;5009049;28;20049;-78
2022/11/05 00:55:32;;;;;;;0.80;0.52;;;;;;;10.13;70.12;99912.47;4996809;28;20050;-78
2022/11/05 00:58:01;;;;;;;1.00;0.50;;;;;;;10.19;68.46;99897.63;5002990;28;20060;-78
2022/11/05 01:00:31;;;;;;;0.30;0.30;;;;;;;10.34;68.60;99910.28;4999175;28;20049;-78
2022/11/05 01:03:01;;;;;;;0.73;0.73;;;;;;;10.32;68.78;99922.63;4998383;28;20054;-78
2022/11/05 01:05:31;;;;;;;2.45;0.70;;;;;;;10.27;70.44;99912.53;4996798;28;20042;-78
2022/11/05 01:08:00;;;;;;;1.08;0.70;;;;;;;10.14;72.25;99905.88;4997476;28;20046;-78
2022/11/05 01:10:30;;;;;;;0.90;0.70;;;;;;;10.12;71.06;99908.09;4996642;28;20050;-77
2022/11/05 01:12:58;;;;;;;2.78;1.05;;;;;;;10.06;70.68;99912.00;4996285;28;20058;-78
2022/11/05 01:15:26;;;;;;;0.80;0.80;;;;;;;9.91;72.42;99905.63;4997526;28;20058;-78
2022/11/05 01:17:54;;;;;;;1.45;0.90;;;;;;;9.94;70.99;99924.16;5008850;28;20054;-78
2022/11/05 01:20:21;;;;;;;0.65;0.63;;;;;;;9.88;72.84;99911.66;4999476;28;20046;-77
2022/11/05 01:22:49;;;;;;;2.22;0.82;;;;;;;9.81;72.99;99908.47;4996676;28;20050;-78
2022/11/05 01:25:17;;;;;;;0.88;0.80;;;;;;;9.82;72.21;99908.19;4993050;28;20046;-78
2022/11/05 01:27:45;;;;;;;0.70;0.60;;;;;;;9.73;71.93;99909.13;4994509;28;20057;-78
2022/11/05 01:30:14;;;;;;;2.50;0.90;;;;;;;9.77;73.78;99915.59;4995268;28;20050;-78
2022/11/05 01:32:42;;;;;;;1.33;0.68;;;;;;;9.80;74.34;99923.25;5002573;28;20068;-78
2022/11/05 01:35:12;;;;;;;0.88;0.70;;;;;;;9.85;71.34;99928.66;4993343;28;20394;-78
2022/11/05 01:37:41;;;;;;;0.65;0.50;;;;;;;9.82;73.34;99915.56;4993902;28;20046;-78
2022/11/05 01:40:12;;;;;;;0.70;0.70;;;;;;;9.78;74.31;99925.47;4993324;28;20042;-78
2022/11/05 01:42:40;;;;;;;0.88;0.77;;;;;;;9.65;74.14;99924.22;4994358;28;20053;-78
2022/11/05 01:45:25;;;;;;;0.82;0.45;;;;;;;9.67;74.99;99922.84;5004409;28;20058;-78
2022/11/05 01:48:06;;;;;;;0.88;0.70;;;;;;;9.73;72.60;99930.97;4998401;28;20050;-78
2022/11/05 01:50:57;;;;;;;1.45;0.68;;;;;;;9.71;73.36;99936.72;4995084;28;20448;-78
2022/11/05 01:53:40;;;;;;;1.73;0.80;;;;;;;9.59;74.56;99945.34;4992668;28;20496;-78
2022/11/05 01:56:13;;;;;;;0.90;0.70;;;;;;;9.63;74.99;99946.38;4986594;28;20050;-78
2022/11/05 01:58:57;;;;;;;3.28;0.82;;;;;;;9.47;75.03;99945.72;4998209;28;20066;-78
2022/11/05 02:01:25;;;;;;;0.63;0.52;;;;;;;9.43;74.64;99944.66;4994271;28;20054;-78
2022/11/05 02:03:57;;;;;;;0.85;0.70;;;;;;;9.40;74.94;99943.31;4991880;28;20058;-78
2022/11/05 02:06:27;;;;;;;0.70;0.63;;;;;;;9.38;72.76;99959.16;4992888;28;20042;-78
2022/11/05 02:09:04;;;;;;;0.95;0.60;;;;;;;9.47;74.83;99955.81;4993491;28;20042;-78
2022/11/05 02:11:33;;;;;;;0.57;0.50;;;;;;;9.41;73.19;99957.78;4995789;28;20088;-78
2022/11/05 02:14:01;;;;;;;0.40;0.38;;;;;;;9.41;73.22;99963.25;4993538;28;20517;-78
2022/11/05 02:16:31;;;;;;;0.40;0.40;;;;;;;9.41;73.12;99965.97;4997492;28;20046;-78
2022/11/05 02:19:26;;;;;;;2.05;0.65;;;;;;;9.33;74.10;99953.75;4997644;28;20065;-78
2022/11/05 02:22:34;;;;;;;0.47;0.40;;;;;;;9.39;72.48;99960.00;4999574;28;20057;-78
2022/11/05 02:26:00;;;;;;;2.17;0.82;;;;;;;9.44;71.88;99961.84;4992857;28;20061;-78
2022/11/05 02:29:12;;;;;;;0.63;0.60;;;;;;;9.56;73.56;99973.22;4966388;28;20046;-78
2022/11/05 02:32:28;;;;;;;0.80;0.65;;;;;;;9.51;70.73;99970.53;4916709;29;20550;-78
2022/11/05 02:35:35;;;;;;;1.90;0.90;;;;;;;9.48;69.00;99980.09;4945923;29;20494;-78
2022/11/05 02:38:12;;;;;;;1.20;0.98;;;;;;;9.46;70.10;99971.41;4993377;28;20109;-77
2022/11/05 02:40:53;;;;;;;0.95;0.90;;;;;;;9.40;69.21;99980.75;5001831;28;20072;-78
2022/11/05 02:43:36;;;;;;;1.02;0.88;;;;;;;9.42;70.29;99973.06;4994057;28;20109;-77
2022/11/05 02:46:32;;;;;;;0.77;0.73;;;;;;;9.40;70.40;99987.00;4998610;28;20046;-78
2022/11/05 02:49:15;;;;;;;2.65;0.95;;;;;;;9.36;70.89;99979.69;4991492;28;20054;-78
2022/11/05 02:51:54;;;;;;;1.10;0.77;;;;;;;9.35;71.84;99973.41;4988923;28;20050;-78
2022/11/05 02:54:42;;;;;;;1.05;0.70;;;;;;;9.39;73.08;99981.84;4993182;28;20480;-78
2022/11/05 02:57:10;;;;;;;0.95;0.68;;;;;;;9.24;74.49;99980.06;4995295;28;20046;-78
2022/11/05 02:59:38;;;;;;;0.50;0.40;;;;;;;9.27;73.65;99976.75;4996287;28;20421;-78
2022/11/05 03:02:06;;;;;;;0.65;0.65;;;;;;;9.35;75.69;99995.25;4992043;28;20371;-78
2022/11/05 03:04:35;;;;;;;0.95;0.70;;;;;;;9.42;73.03;100014.03;4992707;28;20046;-78
2022/11/05 03:07:28;;;;;;;0.80;0.75;;;;;;;9.48;72.54;100014.81;4993106;28;20046;-78
2022/11/05 03:10:17;;;;;;;2.38;0.80;;;;;;;9.48;68.60;100001.16;5000787;28;20042;-78
2022/11/05 03:12:57;;;;;;;1.17;0.95;;;;;;;9.55;69.66;100004.38;4993536;28;20058;-78
2022/11/05 03:16:00;;;;;;;0.70;0.63;;;;;;;9.46;70.89;99995.97;4991588;28;20050;-78
2022/11/05 03:18:33;;;;;;;0.80;0.40;;;;;;;9.49;68.30;100021.91;4987140;28;20502;-78
2022/11/05 03:21:13;;;;;;;1.00;0.65;;;;;;;9.49;68.57;100022.72;4991882;28;20054;-78
2022/11/05 03:23:59;;;;;;;0.30;0.30;;;;;;;9.52;68.76;100024.06;4991591;28;20062;-78
2022/11/05 03:26:32;;;;;;;1.27;0.60;;;;;;;9.50;67.56;100023.53;4991313;28;20053;-78
2022/11/05 03:29:06;;;;;;;0.50;0.50;;;;;;;9.36;69.64;100023.38;4991793;28;20062;-78
2022/11/05 03:31:36;;;;;;;0.40;0.40;;;;;;;9.28;68.43;100027.53;4991684;28;20065;-78
2022/11/05 03:34:06;;;;;;;1.10;0.20;;;;;;;9.24;68.13;100032.72;4990937;28;20077;-76
2022/11/05 03:36:40;;;;;;;0.30;0.30;;;;;;;9.22;69.47;100034.94;4985540;28;20041;-77
2022/11/05 03:39:14;;;;;;;0.40;0.40;;;;;;;9.30;69.64;100036.25;4990886;28;20049;-77
2022/11/05 03:41:46;;;;;;;0.63;0.40;;;;;;;9.29;66.54;100040.06;4990391;28;20062;-77
2022/11/05 03:44:22;;;;;;;1.17;0.57;;;;;;;9.27;66.07;100039.53;4990796;28;20039;-77
2022/11/05 03:46:54;;;;;;;0.57;0.30;;;;;;;9.31;67.21;100047.97;4991946;28;20046;-77
2022/11/05 03:49:26;;;;;;;1.35;0.30;;;;;;;9.33;69.26;100051.25;4991920;28;20054;-77
2022/11/05 03:52:00;;;;;;;0.68;0.50;;;;;;;9.40;65.34;100049.81;4989871;28;20385;-77
2022/11/05 03:54:28;;;;;;;;;;;;;;;9.46;66.10;100056.06;4992623;28;20065;-78
2022/11/05 03:57:08;;;;;;;0.43;0.28;;;;;;;9.41;65.00;100056.94;4992581;28;19929;-77
2022/11/05 03:59:45;;;;;;;0.30;0.30;;;;;;;9.41;64.43;100054.19;4998121;28;20045;-77
2022/11/05 04:02:15;;;;;;;0.20;0.20;;;;;;;9.45;62.76;100048.16;4993774;28;20046;-77
2022/11/05 04:04:44;;;;;;;0.30;0.25;;;;;;;9.41;63.22;100043.28;4992432;28;20062;-77
2022/11/05 04:18:21;;;;;;;0.20;0.20;;;;;;;9.43;64.37;100053.09;4989198;28;20050;-78
2022/11/05 04:26:22;;;;;;;0.38;0.30;;;;;;;9.46;64.54;100060.69;4992589;28;20042;-78
2022/11/05 04:31:37;;;;;;;0.10;0.10;;;;;;;9.51;61.12;100056.03;4993816;28;20054;-78
2022/11/05 04:34:06;;;;;;;0.20;0.20;;;;;;;9.48;63.06;100062.06;4992303;28;20062;-78
2022/11/05 04:36:34;;;;;;;0.52;0.32;;;;;;;9.55;60.51;100065.25;4985526;28;20053;-77
2022/11/05 04:39:01;;;;;;;0.40;0.35;;;;;;;9.63;62.50;100065.78;4991761;28;20055;-78
2022/11/05 04:41:29;;;;;;;0.32;0.32;;;;;;;9.70;59.71;100060.78;4992454;28;20061;-78
2022/11/05 04:43:57;;;;;;;0.30;0.30;;;;;;;9.72;58.92;100064.03;4992489;28;20054;-78
2022/11/05 04:46:27;;;;;;;0.20;0.20;;;;;;;9.76;59.39;100065.09;4991477;28;20054;-78
2022/11/05 04:48:55;;;;;;;0.08;0.08;;;;;;;9.74;59.51;100066.50;4992628;28;20058;-78
2022/11/05 04:51:26;;;;;;;0.32;0.17;;;;;;;9.70;60.07;100065.41;4991981;28;20045;-78
2022/11/05 04:53:56;;;;;;;0.10;0.10;;;;;;;9.64;59.26;100062.72;4992072;28;20046;-78
2022/11/05 04:56:24;;;;;;;2.58;0.28;;;;;;;9.67;63.39;100073.09;5004273;28;20054;-78
2022/11/05 04:58:52;;;;;;;0.32;0.17;;;;;;;9.66;61.99;100081.56;4996493;28;20046;-78
2022/11/05 05:01:22;;;;;;;0.40;0.13;;;;;;;9.57;62.24;100078.66;4995795;28;20051;-78
2022/11/05 05:03:51;;;;;;;0.13;0.13;;;;;;;9.53;63.95;100077.56;4995621;28;20050;-78
2022/11/05 05:06:20;;;;;;;0.75;0.28;;;;;;;9.47;62.57;100079.53;4995615;28;20057;-78
2022/11/05 05:08:49;;;;;;;3.03;0.20;;;;;;;9.47;62.79;100084.19;4996064;28;20054;-78
2022/11/05 05:11:20;;;;;;;1.13;0.20;;;;;;;9.44;63.01;100074.66;5002505;28;20050;-78
2022/11/05 05:13:49;;;;;;;0.38;0.20;;;;;;;9.45;64.12;100081.75;4995848;28;20065;-78
2022/11/05 05:16:20;;;;;;;0.30;0.30;;;;;;;9.46;61.90;100093.47;4995685;28;20050;-78
2022/11/05 05:18:49;;;;;;;0.52;0.40;;;;;;;9.47;62.06;100111.50;4999642;28;20050;-78
2022/11/05 05:24:16;;;;;;;0.70;0.40;;;;;;;9.54;60.20;100106.53;4994171;28;20054;-78
2022/11/05 05:26:46;;;;;;;0.40;0.40;;;;;;;9.57;59.94;100116.09;4995338;28;20046;-78
2022/11/05 05:29:15;;;;;;;0.60;0.35;;;;;;;9.56;59.70;100112.53;4993916;28;20516;-78
2022/11/05 05:31:43;;;;;;;0.20;0.20;;;;;;;9.59;60.48;100113.88;4995313;28;20055;-78
2022/11/05 05:34:12;;;;;;;0.65;0.30;;;;;;;9.61;57.80;100115.22;4995503;28;20521;-78
2022/11/05 05:36:40;;;;;;;0.32;0.28;;;;;;;9.61;59.03;100119.88;4993895;28;20050;-78
2022/11/05 05:39:09;;;;;;;1.30;0.57;;;;;;;9.63;62.47;100120.41;4995141;28;20350;-77
2022/11/05 05:41:37;;;;;;;0.20;0.20;;;;;;;9.68;59.51;100128.56;5007187;28;20057;-77
2022/11/05 05:44:06;;;;;;;0.30;0.30;;;;;;;9.69;59.85;100135.66;4995600;28;20439;-77
2022/11/05 05:46:34;;;;;;;0.30;0.30;;;;;;;9.70;58.55;100139.19;4996628;28;20049;-78
2022/11/05 05:49:04;;;;;;;0.63;0.32;;;;;;;9.67;59.71;100143.31;4988328;28;20413;-78
2022/11/05 05:51:39;;;;;;;0.45;0.45;;;;;;;9.64;59.09;100141.16;4995621;28;20054;-78
2022/11/05 05:54:07;;;;;;;0.25;0.25;;;;;;;9.62;59.50;100137.88;4997502;28;20054;-78
2022/11/05 05:56:35;;;;;;;0.47;0.40;;;;;;;9.63;60.65;100140.34;4994633;28;20050;-78
2022/11/05 05:59:04;;;;;;;0.28;0.28;;;;;;;9.65;60.61;100154.56;4994411;28;20042;-78
2022/11/05 06:01:32;;;;;;;0.40;0.40;;;;;;;9.58;59.40;100148.56;4994231;28;20501;-78
2022/11/05 06:04:03;;;;;;;0.10;0.10;;;;;;;9.61;61.76;100148.00;4997059;28;20045;-78
2022/11/05 06:06:40;;;;;;;0.55;0.35;;;;;;;9.65;60.30;100148.25;4994103;28;20516;-77
2022/11/05 06:09:18;;;;;;;0.20;0.20;;;;;;;9.54;58.97;100142.06;4994459;28;20046;-77
2022/11/05 06:11:46;;;;;;;0.22;0.22;;;;;;;9.59;61.53;100146.66;4994070;28;20486;-78
2022/11/05 06:14:15;;;;;;;0.75;0.38;;;;;;;9.55;61.41;100147.22;4994464;28;20053;-77
2022/11/05 06:16:57;;;;;;;0.52;0.45;;;;;;;9.64;60.60;100158.34;4993495;28;20046;-78
2022/11/05 06:19:26;;;;;;;0.50;0.40;;;;;;;9.64;59.72;100165.75;4993949;28;20050;-79
2022/11/05 06:21:54;;;;;;;0.77;0.77;;;;;;;9.61;59.47;100153.47;5002786;28;20054;-78
2022/11/05 06:24:21;;;;;;;1.13;0.77;;;;;;;9.75;60.14;100167.31;4996987;28;20042;-78
2022/11/05 06:26:49;;;;;;;1.77;1.00;;;;;;;9.78;59.50;100171.41;5000154;28;20065;-78
2022/11/05 06:29:17;;;;;;;2.50;1.33;;;;;;;9.70;59.75;100164.63;4996443;28;20049;-78
2022/11/05 06:31:45;;;;;;;2.38;0.93;;;;;;;9.78;60.81;100171.41;4998678;28;20050;-78
2022/11/05 06:34:13;;;;;;;1.25;1.15;;;;;;;9.82;60.38;100177.91;4998610;28;20050;-79
2022/11/05 06:36:41;;;;;;;1.42;1.08;;;;;;;9.80;61.22;100174.66;4984816;28;20065;-79
2022/11/05 06:39:10;;;;;;;2.72;0.60;;;;;;;9.92;59.93;100169.63;4998679;28;20046;-79
2022/11/05 06:41:38;;;;;;;0.52;0.50;;;;;;;10.08;60.80;100180.47;4999450;28;20041;-79
2022/11/05 06:44:27;;;;;;;1.73;0.80;;;;;;;10.24;59.36;100183.03;4995525;28;20053;-79
2022/11/05 06:46:54;;;;;;;0.50;0.43;;;;;;;10.44;58.51;100193.84;4994933;28;20049;-78
2022/11/05 06:49:25;;;;;;;2.28;0.77;;;;;;;10.68;59.01;100198.53;5004503;28;20497;-79
2022/11/05 06:51:53;;;;;;;0.80;0.68;;;;;;;10.91;56.91;100195.25;4993472;28;20072;-79
2022/11/05 06:54:21;;;;;;;2.88;0.70;;;;;;;11.04;56.96;100199.22;4993626;28;20540;-79
2022/11/05 06:56:49;;;;;;;0.50;0.50;;;;;;;11.29;56.71;100207.09;4993746;28;20057;-79
2022/11/05 06:59:17;;;;;;;0.70;0.40;;;;;;;11.47;54.66;100215.66;4994534;28;20050;-78
2022/11/05 07:01:44;;;;;;;2.90;0.68;;;;;;;11.65;54.29;100215.94;4992934;28;20043;-78
2022/11/05 07:04:13;;;;;;;0.80;0.50;;;;;;;11.77;53.99;100220.97;4993167;28;20433;-78
2022/11/05 07:06:41;;;;;;;1.30;0.65;;;;;;;11.90;55.17;100231.22;4994214;28;20050;-78
2022/11/05 07:09:09;;;;;;;0.63;0.60;;;;;;;12.13;52.94;100228.72;5004918;28;20061;-78
2022/11/05 07:11:37;;;;;;;1.10;0.63;;;;;;;12.30;51.70;100230.88;4993467;28;20054;-79
2022/11/05 07:14:04;;;;;;;0.50;0.40;;;;;;;12.55;52.61;100237.03;4993051;28;20076;-78
2022/11/05 07:16:32;;;;;;;0.82;0.47;;;;;;;12.77;53.02;100227.31;4993271;28;20042;-78
2022/11/05 07:19:00;;;;;;;1.30;0.43;;;;;;;12.98;55.27;100237.91;4995820;28;20520;-78
2022/11/05 07:21:28;;;;;;;2.35;0.38;;;;;;;13.12;49.82;100241.47;5005738;28;20049;-78
2022/11/05 07:23:56;;;;;;;0.88;0.60;;;;;;;13.29;51.78;100242.78;4996463;28;20043;-80
2022/11/05 07:26:27;;;;;;;2.10;0.95;;;;;;;13.46;54.11;100235.84;4995950;28;20049;-79
2022/11/05 07:29:01;;;;;;;2.28;2.08;;;;;;;13.49;52.63;100229.78;4999564;28;20061;-82
2022/11/05 07:31:29;;;;;;;1.48;1.38;;;;;;;13.61;50.24;100251.22;4993548;28;20046;-82
2022/11/05 07:33:58;;;;;;;1.05;0.98;;;;;;;13.70;52.23;100249.38;4993057;28;20061;-82
2022/11/05 07:36:25;;;;;;;2.40;2.20;;;;;;;13.81;50.82;100250.78;4994502;28;20405;-81
2022/11/05 07:38:53;;;;;;;8.77;5.82;;;;;;;13.95;51.18;100259.00;4993608;28;20061;-82
2022/11/05 07:41:28;;;;;;;13.13;8.20;;;;;;;14.09;51.88;100261.66;4993092;28;20055;-82
2022/11/05 07:43:55;;;;;;;11.30;8.38;;;;;;;14.27;51.00;100263.75;4992425;28;20047;-82
2022/11/05 07:46:23;;;;;;;27.02;12.20;;;;;;;14.38;51.91;100270.63;5004074;28;20046;-82
2022/11/05 07:48:51;;;;;;;12.20;7.95;;;;;;;14.57;53.97;100280.63;4993755;28;20058;-82
2022/11/05 07:51:20;;;;;;;1.73;1.42;;;;;;;14.63;48.56;100279.38;4992700;28;20042;-82
2022/11/05 07:53:48;;;;;;;4.15;2.38;;;;;;;14.80;50.16;100275.13;4992490;28;20046;-82
2022/11/05 07:56:16;;;;;;;4.28;2.95;;;;;;;14.99;47.93;100289.47;4999257;28;20049;-82
2022/11/05 07:58:44;;;;;;;2.47;1.50;;;;;;;15.20;47.00;100293.63;4996481;28;20058;-82
2022/11/05 08:01:13;;;;;;;1.77;1.15;;;;;;;15.42;45.16;100287.19;5007807;28;20057;-82
2022/11/05 08:03:41;;;;;;;24.80;6.68;;;;;;;15.65;44.70;100306.41;5004428;28;20058;-82
2022/11/05 08:06:09;;;;;;;39.75;10.73;;;;;;;15.69;46.64;100304.63;5006647;28;20057;-82
2022/11/05 08:08:37;;;;;;;22.80;7.38;;;;;;;15.68;47.04;100308.50;4995760;28;20050;-80
2022/11/05 08:11:06;;;;;;;15.45;4.38;;;;;;;15.81;44.54;100304.00;4997666;28;20477;-81
2022/11/05 08:13:35;;;;;;;6.43;2.97;;;;;;;15.87;44.55;100322.00;4992395;28;20054;-80
2022/11/05 08:16:04;;;;;;;6.60;2.25;;;;;;;16.03;45.28;100322.38;4993214;28;20065;-81
2022/11/05 08:18:32;;;;;;;5.15;1.75;;;;;;;16.07;42.33;100312.34;4990805;28;20042;-81
2022/11/05 08:21:03;;;;;;;3.13;1.52;;;;;;;16.23;43.70;100309.88;4991559;28;20034;-79
2022/11/05 08:23:32;;;;;;;8.48;3.10;;;;;;;16.34;43.99;100315.09;4991286;28;20057;-81
2022/11/05 08:26:02;;;;;;;1.95;1.70;;;;;;;16.25;42.25;100310.41;4990866;28;20457;-80
2022/11/05 08:28:30;;;;;;;3.85;1.67;;;;;;;16.43;43.75;100302.06;4992543;28;20055;-81
2022/11/05 08:30:58;;;;;;;2.40;1.13;;;;;;;16.54;43.10;100308.09;4994959;28;20516;-80
2022/11/05 08:33:28;;;;;;;1.75;0.90;;;;;;;16.82;41.18;100327.06;5005434;28;20046;-81
2022/11/05 08:36:00;;;;;;;3.33;0.65;;;;;;;16.89;41.37;100319.06;4986181;28;20513;-81
2022/11/05 08:38:28;;;;;;;0.82;0.80;;;;;;;16.89;41.66;100335.66;4993691;28;20054;-81
2022/11/05 08:40:57;;;;;;;1.67;1.17;;;;;;;16.96;40.79;100328.81;4995755;28;20516;-81
2022/11/05 08:43:25;;;;;;;7.65;3.53;;;;;;;17.03;39.02;100334.66;4996385;28;20065;-81
2022/11/05 08:45:53;;;;;;;40.33;10.02;;;;;;;17.26;40.77;100337.19;4995760;28;20046;-81
2022/11/05 08:48:21;;;;;;;22.55;5.57;;;;;;;17.15;38.58;100332.00;4995833;28;20054;-81
2022/11/05 08:50:49;;;;;;;6.70;2.75;;;;;;;17.24;37.87;100333.94;4995430;28;20050;-81
2022/11/05 08:53:18;;;;;;;6.05;1.77;;;;;;;17.50;38.32;100341.31;4995664;28;20039;-81
2022/11/05 08:55:48;;;;;;;2.58;1.60;;;;;;;17.55;35.00;100327.28;4995650;28;20057;-81
2022/11/05 08:58:18;;;;;;;2.58;1.10;;;;;;;17.45;36.91;100340.34;4995711;28;20468;-81
2022/11/05 09:00:48;;;;;;;1.05;0.95;;;;;;;17.56;37.60;100345.50;4996167;28;20046;-81
2022/11/05 09:03:16;;;;;;;1.42;0.80;;;;;;;17.76;34.90;100343.13;4995580;28;20047;-81
2022/11/05 09:05:45;;;;;;;2.20;1.58;;;;;;;17.81;37.79;100345.69;4995778;28;20413;-81
2022/11/05 09:08:15;;;;;;;3.72;1.85;;;;;;;17.80;37.47;100352.38;4996057;28;20406;-81
2022/11/05 09:10:45;;;;;;;4.25;1.30;;;;;;;17.77;39.86;100358.56;4995298;28;20073;-81
2022/11/05 09:13:13;;;;;;;5.03;1.60;;;;;;;17.76;39.22;100352.25;4995296;28;20051;-81
2022/11/05 09:15:48;;;;;;;4.13;1.52;;;;;;;17.82;39.03;100359.22;4995474;28;20050;-81
2022/11/05 09:18:19;;;;;;;4.60;1.48;;;;;;;17.76;39.41;100362.50;4995595;28;20058;-81
2022/11/05 09:20:47;;;;;;;1.58;1.35;;;;;;;17.86;37.93;100353.81;4995120;28;20054;-81
2022/11/05 09:23:15;;;;;;;0.90;0.80;;;;;;;17.73;38.34;100362.03;4995256;28;20042;-81
2022/11/05 09:25:44;;;;;;;1.63;1.10;;;;;;;17.95;38.22;100364.81;4995647;28;20046;-81
2022/11/05 09:28:20;;;;;;;3.72;1.00;;;;;;;17.93;39.28;100376.22;4995471;28;20038;-81
2022/11/05 09:30:50;;;;;;;1.30;1.20;;;;;;;18.01;39.69;100371.78;4995284;28;20508;-81
2022/11/05 09:33:21;;;;;;;1.13;0.80;;;;;;;18.06;37.46;100368.03;4995272;28;20508;-81
2022/11/05 09:35:50;;;;;;;1.58;1.45;;;;;;;17.78;41.19;100376.81;5000970;28;20383;-80
2022/11/05 09:38:18;;;;;;;4.90;1.20;;;;;;;17.95;41.09;100373.94;4990828;28;20058;-81
2022/11/05 09:41:04;;;;;;;3.22;2.08;;;;;;;18.00;44.35;100379.28;4995319;28;20046;-81
2022/11/05 09:43:54;;;;;;;2.80;2.10;;;;;;;17.96;46.15;100370.03;4994969;28;20661;-81
2022/11/05 09:46:27;;;;;;;3.97;2.00;;;;;;;18.12;45.53;100372.22;4995644;28;20370;-80
2022/11/05 09:49:04;;;;;;;5.28;1.52;;;;;;;18.04;44.08;100381.38;4993619;28;20057;-80
2022/11/05 09:51:33;;;;;;;2.53;1.60;;;;;;;18.04;43.09;100378.63;4995163;28;20059;-81
2022/11/05 09:54:04;;;;;;;2.33;1.33;;;;;;;18.19;43.21;100375.25;4994633;28;20521;-81
2022/11/05 09:56:36;;;;;;;2.17;1.13;;;;;;;18.08;41.67;100382.38;4995244;28;20069;-81
2022/11/05 09:59:15;;;;;;;4.47;1.10;;;;;;;17.95;42.06;100373.94;4994683;28;20611;-81
2022/11/05 10:01:44;;;;;;;2.13;1.10;;;;;;;18.37;41.47;100395.34;4994345;28;20064;-81
2022/11/05 10:04:18;;;;;;;1.23;1.00;;;;;;;18.43;40.80;100398.72;4994601;28;20038;-80
2022/11/05 10:06:58;;;;;;;1.20;0.90;;;;;;;18.42;39.93;100386.00;4994535;28;20054;-81
2022/11/05 10:09:55;;;;;;;4.72;2.17;;;;;;;18.59;41.79;100403.66;5002360;28;20049;-81
2022/11/05 10:12:45;;;;;;;4.10;1.55;;;;;;;18.26;41.53;100396.88;5015328;28;20477;-81
2022/11/05 10:15:21;;;;;;;5.88;2.50;;;;;;;18.28;42.44;100397.34;4993628;28;20070;-81
2022/11/05 10:18:00;;;;;;;2.65;1.90;;;;;;;18.25;42.13;100400.81;4994441;28;20057;-78
2022/11/05 10:20:37;;;;;;;4.18;1.80;;;;;;;18.52;40.88;100407.78;4970641;28;20580;-80
2022/11/05 10:23:09;;;;;;;2.35;1.15;;;;;;;18.57;38.84;100406.75;5004800;28;20050;-79
2022/11/05 10:25:42;;;;;;;2.03;1.20;;;;;;;18.74;38.63;100407.75;4993174;28;20038;-80
2022/11/05 10:28:18;;;;;;;4.55;2.05;;;;;;;18.99;39.74;100402.28;4983134;28;20054;-79
2022/11/05 10:30:52;;;;;;;2.40;0.88;;;;;;;18.90;38.37;100392.13;4970659;28;20055;-78
2022/11/05 10:33:38;;;;;;;2.40;1.00;;;;;;;18.76;37.00;100394.34;4992630;28;20054;-75
2022/11/05 10:36:12;;;;;;;2.45;1.10;;;;;;;18.76;36.76;100395.19;4990717;28;20066;-75
2022/11/05 10:38:44;;;;;;;3.27;0.90;;;;;;;18.74;38.07;100396.66;4990242;28;20054;-73
2022/11/05 10:41:32;;;;;;;1.90;1.40;;;;;;;18.91;37.50;100402.03;4992599;28;20301;-73
2022/11/05 10:44:13;;;;;;;1.90;0.70;;;;;;;18.69;38.35;100413.50;4978516;28;20461;-74
2022/11/05 10:47:07;;;;;;;1.27;1.17;;;;;;;18.92;37.94;100391.78;4986680;28;20058;-73
2022/11/05 10:49:48;;;;;;;1.10;1.00;;;;;;;19.00;39.73;100406.69;4966896;28;20520;-72
2022/11/05 10:52:26;;;;;;;2.00;0.85;;;;;;;19.26;37.76;100406.44;4956658;28;20063;-73
2022/11/05 10:55:00;;;;;;;1.10;0.93;;;;;;;19.46;37.98;100406.72;4971947;28;20061;-73
2022/11/05 10:57:39;;;;;;;0.60;0.60;;;;;;;19.26;37.79;100414.75;4972283;28;20050;-73
2022/11/05 11:00:17;;;;;;;1.38;0.82;;;;;;;19.34;37.53;100407.50;4974333;28;20390;-72
2022/11/05 11:02:49;;;;;;;1.42;0.73;;;;;;;19.20;36.30;100402.25;4986312;28;20042;-73
2022/11/05 11:05:41;;;;;;;0.50;0.50;;;;;;;19.15;37.58;100406.06;4969101;28;20374;-73
2022/11/05 11:08:11;;;;;;;1.97;0.83;;;;;;;19.30;35.34;100401.81;4986668;28;20050;-73
2022/11/05 11:10:53;;;;;;;0.60;0.60;;;;;;;19.19;37.25;100403.41;4972266;28;20378;-73
2022/11/05 11:13:51;;;;;;;1.05;0.77;;;;;;;19.46;37.39;100403.94;4987322;28;20058;-72
2022/11/05 11:16:22;;;;;;;1.90;1.10;;;;;;;19.62;38.99;100387.41;4990714;28;20062;-73
2022/11/05 11:19:00;;;;;;;0.80;0.80;;;;;;;19.90;36.07;100394.22;4971963;28;20050;-73
2022/11/05 11:21:31;;;;;;;0.85;0.85;;;;;;;20.12;35.40;100401.28;4972448;28;20713;-73
2022/11/05 11:24:05;;;;;;;1.20;0.95;;;;;;;20.17;36.09;100389.13;4972488;28;20069;-72
2022/11/05 11:26:39;;;;;;;0.90;0.90;;;;;;;20.01;36.49;100396.19;4967123;28;20569;-73
2022/11/05 11:29:25;;;;;;;0.90;0.90;;;;;;;19.73;36.55;100396.06;4975370;28;20050;-73
2022/11/05 11:31:55;;;;;;;0.55;0.55;;;;;;;19.91;36.47;100398.63;4986678;28;20058;-72
2022/11/05 11:34:34;;;;;;;0.98;0.50;;;;;;;19.66;35.76;100393.06;4982305;28;20054;-72
2022/11/05 11:37:14;;;;;;;1.40;0.68;;;;;;;19.83;36.17;100398.41;4988824;28;20050;-72
2022/11/05 11:39:50;;;;;;;2.87;0.50;;;;;;;19.84;36.22;100396.44;4976476;28;20046;-72
2022/11/05 11:42:22;;;;;;;0.55;0.40;;;;;;;19.91;37.54;100395.84;4991718;28;20050;-73
2022/11/05 11:44:50;;;;;;;1.33;0.50;;;;;;;19.58;36.51;100392.03;4982285;28;20378;-73
2022/11/05 11:47:21;;;;;;;0.90;0.70;;;;;;;19.76;37.52;100384.28;4974715;28;20050;-73
2022/11/05 11:49:52;;;;;;;0.55;0.55;;;;;;;19.46;37.10;100398.41;4994387;28;20402;-73
2022/11/05 11:52:22;;;;;;;1.00;0.65;;;;;;;19.92;36.26;100400.22;4990412;28;20413;-72
2022/11/05 11:54:51;;;;;;;0.60;0.60;;;;;;;19.91;35.63;100393.06;4992108;28;20512;-72
2022/11/05 11:57:25;;;;;;;1.92;0.63;;;;;;;20.06;36.76;100392.41;4993291;28;20038;-72
2022/11/05 11:59:55;;;;;;;1.33;0.80;;;;;;;19.87;35.69;100379.88;4993025;28;20074;-72
2022/11/05 12:03:05;;;;;;;0.75;0.70;;;;;;;19.83;35.23;100394.78;4991842;28;20505;-72
2022/11/05 12:05:35;;;;;;;0.80;0.57;;;;;;;19.88;36.80;100398.16;5001320;28;20061;-72
2022/11/05 12:08:22;;;;;;;0.52;0.50;;;;;;;19.69;35.52;100389.59;5003151;28;20054;-72
2022/11/05 12:10:56;;;;;;;1.35;0.88;;;;;;;19.92;36.95;100397.44;4991948;28;20054;-72
2022/11/05 12:13:39;;;;;;;0.90;0.73;;;;;;;19.96;36.21;100406.75;4990492;28;20513;-72
2022/11/05 12:16:21;;;;;;;1.00;1.00;;;;;;;19.47;35.76;100394.47;4990016;28;20491;-72
2022/11/05 12:19:03;;;;;;;1.38;1.08;;;;;;;19.68;36.23;100385.19;4993115;28;20054;-72
2022/11/05 12:21:46;;;;;;;1.05;0.82;;;;;;;19.73;34.86;100390.53;4988668;28;20058;-72
2022/11/05 12:24:34;;;;;;;2.65;1.27;;;;;;;19.63;36.89;100396.53;4989588;28;20057;-72
2022/11/05 12:27:32;;;;;;;1.23;1.20;;;;;;;19.76;34.54;100389.84;5015791;28;20054;-72
2022/11/05 12:30:16;;;;;;;2.45;0.90;;;;;;;19.98;34.57;100391.34;4989021;28;20054;-72
2022/11/05 12:33:18;;;;;;;0.68;0.65;;;;;;;20.07;34.80;100382.91;4991313;28;20904;-73
2022/11/05 12:36:43;;;;;;;1.48;0.95;;;;;;;20.16;35.45;100385.53;5003796;28;20077;-72
2022/11/05 12:39:49;;;;;;;1.20;0.98;;;;;;;19.97;35.19;100386.16;4988376;28;20043;-73
2022/11/05 12:46:32;;;;;;;1.30;1.20;;;;;;;19.83;36.77;100381.75;5187530;23;20413;-72
2022/11/05 12:49:18;;;;;;;1.65;1.50;;;;;;;19.69;38.79;100389.59;4987438;28;20059;-72
2022/11/05 12:52:08;;;;;;;1.58;1.42;;;;;;;19.60;38.32;100375.84;4987924;28;20046;-72
2022/11/05 12:55:04;;;;;;;1.60;1.50;;;;;;;19.69;38.81;100390.41;4988014;28;20409;-72